KGMJ

Grove Municipal Airport

Grove, Oklahoma, USA
METAR KGMJ 160555Z AUTO 00000KT 7SM CLR 23/22 A2997 RMK AO2 LTG DSNT E
Observed Flight Rules
Aug-16 @ 05:55 UTC (21 minutes ago) Visual Flight Rules
Visibility Clouds
7 miles
  • Clear skies
Temperatures Readings
Current 23°C / 73°F
Dewpoint 22°C / 72°F
Humidity 94%
Altimeter 29.97" Hg
Pressure 1015 hPa
Elevation 254
METAR KGMJ 160555Z AUTO 00000KT 7SM CLR 23/22 A2997 RMK AO2 LTG DSNT E
Observed Flight Rules
Aug-16 @ 05:55 UTC
(21 minutes ago)
VFR
Clouds
  • Clear skies
Temperature Dewpoint
23°C / 73°F 22°C / 72°F
Humidity Altimeter Pressure
94% 29.97" Hg 1015 hPa